createdAt,value
2023-01-29T00:00:00.166Z,69.50
2023-01-29T00:02:27.229Z,67.88
2023-01-29T00:04:58.683Z,68.12
2023-01-29T00:07:25.582Z,70.13
2023-01-29T00:09:52.276Z,69.31
2023-01-29T00:12:18.917Z,69.92
2023-01-29T00:14:45.491Z,69.62
2023-01-29T00:17:12.039Z,69.35
2023-01-29T00:19:38.654Z,69.70
2023-01-29T00:22:05.460Z,69.36
2023-01-29T00:24:32.369Z,70.03
2023-01-29T00:26:58.907Z,70.14
2023-01-29T00:29:25.449Z,70.31
2023-01-29T00:31:52.066Z,71.13
2023-01-29T00:34:18.838Z,71.18
2023-01-29T00:36:46.408Z,71.28
2023-01-29T00:39:13.160Z,70.71
2023-01-29T00:41:58.503Z,72.82
2023-01-29T00:44:43.802Z,72.95
2023-01-29T00:47:28.997Z,71.60
2023-01-29T00:49:55.836Z,71.30
2023-01-29T00:52:25.759Z,71.62
2023-01-29T00:54:53.887Z,71.95
2023-01-29T00:57:20.621Z,72.23
2023-01-29T00:59:47.253Z,72.18
2023-01-29T01:02:40.940Z,73.01
2023-01-29T01:05:14.013Z,72.22
2023-01-29T01:07:41.249Z,72.15
2023-01-29T01:10:21.908Z,72.28
2023-01-29T01:12:51.075Z,72.19
2023-01-29T01:15:18.558Z,72.27
2023-01-29T01:17:45.538Z,72.86
2023-01-29T01:20:12.988Z,72.46
2023-01-29T01:22:39.642Z,72.02
2023-01-29T01:25:06.459Z,72.30
2023-01-29T01:27:34.999Z,71.89
2023-01-29T01:30:02.427Z,72.91
2023-01-29T01:32:29.030Z,71.71
2023-01-29T01:34:55.582Z,73.75
2023-01-29T01:37:22.180Z,72.37
2023-01-29T01:39:49.116Z,73.55
2023-01-29T01:42:15.609Z,72.31
2023-01-29T01:45:04.450Z,72.12
2023-01-29T01:47:38.078Z,72.62
2023-01-29T01:50:12.406Z,71.90
2023-01-29T01:52:43.871Z,71.62
2023-01-29T01:55:13.033Z,72.01
2023-01-29T01:57:42.235Z,72.35
2023-01-29T02:00:12.942Z,72.19
2023-01-29T02:03:00.469Z,72.35
2023-01-29T02:05:46.571Z,72.75
2023-01-29T02:08:33.327Z,72.72
2023-01-29T02:11:01.026Z,72.43
2023-01-29T02:13:27.576Z,72.70
2023-01-29T02:15:54.207Z,72.41
2023-01-29T02:18:21.850Z,72.58
2023-01-29T02:21:07.318Z,72.74
2023-01-29T02:23:50.966Z,72.62
2023-01-29T02:26:34.285Z,73.10
2023-01-29T02:29:25.406Z,72.91
2023-01-29T02:32:04.293Z,72.53
2023-01-29T02:34:57.689Z,72.14
2023-01-29T02:37:34.932Z,72.47
2023-01-29T02:40:07.213Z,72.37
2023-01-29T02:42:43.523Z,74.54
2023-01-29T02:45:15.825Z,72.47
2023-01-29T02:48:00.969Z,74.96
2023-01-29T02:50:38.979Z,72.99
2023-01-29T02:53:32.479Z,74.52
2023-01-29T02:56:09.651Z,72.89
2023-01-29T02:58:45.025Z,73.14
2023-01-29T03:01:18.315Z,73.01
2023-01-29T03:03:50.412Z,72.92
2023-01-29T03:06:24.709Z,73.05
2023-01-29T03:08:57.622Z,73.49
2023-01-29T03:11:26.979Z,73.07
2023-01-29T03:13:58.575Z,73.07
2023-01-29T03:16:32.752Z,73.12
2023-01-29T03:19:08.629Z,73.15
2023-01-29T03:21:59.558Z,73.64
2023-01-29T03:24:55.811Z,72.99
2023-01-29T03:27:45.543Z,73.38
2023-01-29T03:30:32.709Z,73.83
2023-01-29T03:33:03.571Z,74.01
2023-01-29T03:35:36.638Z,73.88
2023-01-29T03:38:05.812Z,74.32
2023-01-29T03:40:46.943Z,75.05
2023-01-29T03:43:35.036Z,74.98
2023-01-29T03:46:08.663Z,74.25
2023-01-29T03:48:40.256Z,74.73
2023-01-29T03:51:34.687Z,75.20
2023-01-29T03:54:06.267Z,74.84
2023-01-29T03:56:50.904Z,74.75
2023-01-29T03:59:33.087Z,74.60
2023-01-29T04:02:03.884Z,74.17
2023-01-29T04:04:34.826Z,74.39
2023-01-29T04:07:11.218Z,74.53
2023-01-29T04:09:46.803Z,74.57
2023-01-29T04:12:19.345Z,74.89
2023-01-29T04:14:47.988Z,75.51
2023-01-29T04:17:20.115Z,74.95
2023-01-29T04:19:48.059Z,74.57
2023-01-29T04:22:31.334Z,75.08
2023-01-29T04:25:02.974Z,75.26
2023-01-29T04:27:29.556Z,74.71
2023-01-29T04:30:14.438Z,76.03
2023-01-29T04:33:11.299Z,74.85
2023-01-29T04:35:59.972Z,74.97
2023-01-29T04:38:47.640Z,75.30
2023-01-29T04:41:24.774Z,74.56
2023-01-29T04:44:15.621Z,74.39
2023-01-29T04:46:51.245Z,75.03
2023-01-29T04:49:31.426Z,74.70
2023-01-29T04:52:00.860Z,74.45
2023-01-29T04:55:06.463Z,74.68
2023-01-29T04:57:58.020Z,74.48
2023-01-29T05:00:32.194Z,74.74
2023-01-29T05:03:00.598Z,75.10
2023-01-29T05:05:28.139Z,74.99
2023-01-29T05:07:57.026Z,74.65
2023-01-29T05:10:25.115Z,74.83
2023-01-29T05:12:59.791Z,75.20
2023-01-29T05:15:32.080Z,74.62
2023-01-29T05:18:03.043Z,75.02
2023-01-29T05:20:34.554Z,75.38
2023-01-29T05:23:01.218Z,75.10
2023-01-29T05:25:30.157Z,74.90
2023-01-29T05:28:16.457Z,75.34
2023-01-29T05:30:47.705Z,74.44
2023-01-29T05:33:19.646Z,74.43
2023-01-29T05:35:47.083Z,75.02
2023-01-29T05:38:14.656Z,74.77
2023-01-29T05:40:41.854Z,74.71
2023-01-29T05:43:20.106Z,75.08
2023-01-29T05:45:57.349Z,75.46
2023-01-29T05:48:24.909Z,75.07
2023-01-29T05:50:51.992Z,74.69
2023-01-29T05:53:18.731Z,74.70
2023-01-29T05:55:46.675Z,74.93
2023-01-29T05:58:13.374Z,75.89
2023-01-29T06:00:41.381Z,74.79
2023-01-29T06:03:07.972Z,74.88
2023-01-29T06:05:38.146Z,75.10
2023-01-29T06:08:05.368Z,74.89
2023-01-29T06:10:31.961Z,75.36
2023-01-29T06:12:58.696Z,75.06
2023-01-29T06:15:27.144Z,75.12
2023-01-29T06:17:54.697Z,75.48
2023-01-29T06:20:21.618Z,74.82
2023-01-29T06:22:48.150Z,74.95
2023-01-29T06:25:14.799Z,74.78
2023-01-29T06:27:41.435Z,74.92
2023-01-29T06:30:08.592Z,75.09
2023-01-29T06:32:35.295Z,75.08
2023-01-29T06:35:02.082Z,75.10
2023-01-29T06:37:28.691Z,75.04
2023-01-29T06:39:55.239Z,74.74
2023-01-29T06:42:27.751Z,75.13
2023-01-29T06:44:55.774Z,75.07
2023-01-29T06:47:23.059Z,75.03
2023-01-29T06:49:50.302Z,74.92
2023-01-29T06:52:16.982Z,74.70
2023-01-29T06:54:43.469Z,74.89
2023-01-29T06:57:10.193Z,75.02
2023-01-29T06:59:36.729Z,75.23
2023-01-29T07:02:04.328Z,75.06
2023-01-29T07:04:30.968Z,75.40
2023-01-29T07:07:00.027Z,74.82
2023-01-29T07:09:26.613Z,75.05
2023-01-29T07:11:53.132Z,74.83
2023-01-29T07:14:19.966Z,74.99
2023-01-29T07:16:46.612Z,74.58
2023-01-29T07:19:13.839Z,74.83
2023-01-29T07:21:40.454Z,75.04
2023-01-29T07:24:07.415Z,75.13
2023-01-29T07:26:33.959Z,75.02
2023-01-29T07:29:00.604Z,74.83
2023-01-29T07:31:27.271Z,74.96
2023-01-29T07:33:53.856Z,75.24
2023-01-29T07:36:20.562Z,75.37
2023-01-29T07:38:51.190Z,76.11
2023-01-29T07:41:17.795Z,76.56
2023-01-29T07:43:44.406Z,76.43
2023-01-29T07:46:11.051Z,77.40
2023-01-29T07:48:37.872Z,77.25
2023-01-29T07:51:04.681Z,78.27
2023-01-29T07:53:31.499Z,78.56
2023-01-29T07:55:58.082Z,78.28
2023-01-29T07:58:24.880Z,79.35
2023-01-29T08:00:51.532Z,79.30
2023-01-29T08:03:20.261Z,79.18
2023-01-29T08:05:47.154Z,80.19
2023-01-29T08:08:14.132Z,77.41
2023-01-29T08:10:41.481Z,76.04
2023-01-29T08:13:09.212Z,80.15
2023-01-29T08:15:38.050Z,79.16
2023-01-29T08:18:06.375Z,80.48
2023-01-29T08:20:33.113Z,80.40
2023-01-29T08:23:04.606Z,79.88
2023-01-29T08:25:31.925Z,78.93
2023-01-29T08:27:59.675Z,79.64
2023-01-29T08:30:27.686Z,80.87
2023-01-29T08:32:54.448Z,79.66
2023-01-29T08:35:21.606Z,80.09
2023-01-29T08:38:00.604Z,78.42
2023-01-29T08:40:28.997Z,78.80
2023-01-29T08:43:07.010Z,80.05
2023-01-29T08:45:37.053Z,79.11
2023-01-29T08:48:04.350Z,79.08
2023-01-29T08:50:31.931Z,79.04
2023-01-29T08:52:59.996Z,77.79
2023-01-29T08:55:27.338Z,77.97
2023-01-29T08:57:54.227Z,77.85
2023-01-29T09:00:21.227Z,78.47
2023-01-29T09:02:47.800Z,75.80
2023-01-29T09:05:15.187Z,77.58
2023-01-29T09:07:41.952Z,78.06
2023-01-29T09:10:10.479Z,77.90
2023-01-29T09:12:37.033Z,75.51
2023-01-29T09:15:04.202Z,77.33
2023-01-29T09:17:30.874Z,73.18
2023-01-29T09:19:58.706Z,76.40
2023-01-29T09:22:25.457Z,76.77
2023-01-29T09:24:52.289Z,76.64
2023-01-29T09:27:19.056Z,76.12
2023-01-29T09:29:46.120Z,76.41
2023-01-29T09:32:12.765Z,75.96
2023-01-29T09:34:39.328Z,74.91
2023-01-29T09:37:06.676Z,74.65
2023-01-29T09:39:33.510Z,74.10
2023-01-29T09:42:03.778Z,73.99
2023-01-29T09:44:56.676Z,74.85
2023-01-29T09:47:26.149Z,74.23
2023-01-29T09:49:58.249Z,73.40
2023-01-29T09:52:32.618Z,74.42
2023-01-29T09:55:22.691Z,73.50
2023-01-29T09:57:57.399Z,74.00
2023-01-29T10:00:34.215Z,74.01
2023-01-29T10:03:37.632Z,74.33
2023-01-29T10:06:21.835Z,73.93
2023-01-29T10:09:02.317Z,73.52
2023-01-29T10:11:50.665Z,73.87
2023-01-29T10:14:27.936Z,72.10
2023-01-29T10:17:26.439Z,73.65
2023-01-29T10:20:07.782Z,72.06
2023-01-29T10:23:02.623Z,72.08
2023-01-29T10:25:29.306Z,72.66
2023-01-29T10:27:59.408Z,72.38
2023-01-29T10:30:36.873Z,71.51
2023-01-29T10:33:06.943Z,72.69
2023-01-29T10:35:41.192Z,71.94
2023-01-29T10:38:28.556Z,72.28
2023-01-29T10:41:08.460Z,71.17
2023-01-29T10:44:12.851Z,72.04
2023-01-29T10:46:52.397Z,69.53
2023-01-29T10:49:37.725Z,71.56
2023-01-29T10:52:50.389Z,71.08
2023-01-29T10:55:34.796Z,71.26
2023-01-29T10:58:28.879Z,71.61
2023-01-29T11:00:55.509Z,71.52
2023-01-29T11:03:27.985Z,72.01
2023-01-29T11:06:14.094Z,69.52
2023-01-29T11:08:49.588Z,70.78
2023-01-29T11:11:18.980Z,71.12
2023-01-29T11:13:55.535Z,70.67
2023-01-29T11:16:22.299Z,70.06
2023-01-29T11:18:56.099Z,71.24
2023-01-29T11:21:24.467Z,70.89
2023-01-29T11:24:04.867Z,68.97
2023-01-29T11:26:35.917Z,70.89
2023-01-29T11:29:02.544Z,70.83
2023-01-29T11:31:39.063Z,71.05
2023-01-29T11:34:13.693Z,70.49
2023-01-29T11:36:40.517Z,70.88
2023-01-29T11:39:20.354Z,69.24
2023-01-29T11:41:57.979Z,70.08
2023-01-29T11:44:30.173Z,70.45
2023-01-29T11:47:09.670Z,70.13
2023-01-29T11:49:37.369Z,70.26
2023-01-29T11:52:07.488Z,70.58
2023-01-29T11:54:47.203Z,70.51
2023-01-29T11:57:22.358Z,70.90
2023-01-29T11:59:52.340Z,69.41
2023-01-29T12:02:39.076Z,70.74
2023-01-29T12:05:15.987Z,70.74
2023-01-29T12:07:45.683Z,70.48
2023-01-29T12:10:30.595Z,70.60
2023-01-29T12:13:06.090Z,70.63
2023-01-29T12:15:33.013Z,70.97
2023-01-29T12:18:30.013Z,71.13
2023-01-29T12:21:12.508Z,70.89
2023-01-29T12:23:55.021Z,70.94
2023-01-29T12:26:30.000Z,71.10
2023-01-29T12:29:20.689Z,71.17
2023-01-29T12:32:05.386Z,71.14
2023-01-29T12:35:01.729Z,71.05
2023-01-29T12:37:38.463Z,70.82
2023-01-29T12:40:16.770Z,71.38
2023-01-29T12:42:48.816Z,70.85
2023-01-29T12:45:21.036Z,71.03
2023-01-29T12:47:52.922Z,71.28
2023-01-29T12:50:30.287Z,71.16
2023-01-29T12:53:02.092Z,71.04
2023-01-29T12:55:34.949Z,70.76
2023-01-29T12:58:04.572Z,71.20
2023-01-29T13:00:40.527Z,71.30
2023-01-29T13:03:17.398Z,71.07
2023-01-29T13:05:56.123Z,71.21
2023-01-29T13:08:35.941Z,70.70
2023-01-29T13:11:08.770Z,71.48
2023-01-29T13:13:54.582Z,70.75
2023-01-29T13:16:30.501Z,70.62
2023-01-29T13:19:00.832Z,71.36
2023-01-29T13:21:31.168Z,71.20
2023-01-29T13:24:05.298Z,70.99
2023-01-29T13:26:32.678Z,70.99
2023-01-29T13:28:59.538Z,71.17
2023-01-29T13:31:28.924Z,71.20
2023-01-29T13:33:59.404Z,71.28
2023-01-29T13:36:29.822Z,71.59
2023-01-29T13:39:00.208Z,71.27
2023-01-29T13:41:40.137Z,71.50
2023-01-29T13:44:18.429Z,71.46
2023-01-29T13:46:57.876Z,71.28
2023-01-29T13:49:47.529Z,70.95
2023-01-29T13:52:21.455Z,71.09
2023-01-29T13:54:58.018Z,71.10
2023-01-29T13:57:47.780Z,70.93
2023-01-29T14:00:17.075Z,71.14
2023-01-29T14:02:43.598Z,70.36
2023-01-29T14:05:32.004Z,71.12
2023-01-29T14:08:00.625Z,70.84
2023-01-29T14:10:29.862Z,71.23
2023-01-29T14:13:11.590Z,71.13
2023-01-29T14:15:41.986Z,70.96
2023-01-29T14:18:08.594Z,70.47
2023-01-29T14:20:50.326Z,71.00
2023-01-29T14:23:41.993Z,71.09
2023-01-29T14:26:29.095Z,71.00
2023-01-29T14:29:04.451Z,70.97
2023-01-29T14:31:43.780Z,71.00
2023-01-29T14:34:21.022Z,71.21
2023-01-29T14:36:55.318Z,70.88
2023-01-29T14:39:42.349Z,71.13
2023-01-29T14:42:22.511Z,71.19
2023-01-29T14:44:58.777Z,71.10
2023-01-29T14:47:28.563Z,70.98
2023-01-29T14:50:00.846Z,71.05
2023-01-29T14:52:37.697Z,70.75
2023-01-29T14:55:09.474Z,70.98
2023-01-29T14:57:40.427Z,70.79
2023-01-29T15:00:26.962Z,70.95
2023-01-29T15:03:02.007Z,70.66
2023-01-29T15:05:36.134Z,71.47
2023-01-29T15:08:30.410Z,70.71
2023-01-29T15:11:21.222Z,71.11
2023-01-29T15:13:55.592Z,70.74
2023-01-29T15:16:43.708Z,71.09
2023-01-29T15:19:18.335Z,70.73
2023-01-29T15:22:08.732Z,70.93
2023-01-29T15:24:36.947Z,71.06
2023-01-29T15:27:05.827Z,71.05
2023-01-29T15:29:32.619Z,71.02
2023-01-29T15:31:59.610Z,71.11
2023-01-29T15:34:26.536Z,70.85
2023-01-29T15:36:53.222Z,71.15
2023-01-29T15:39:23.592Z,70.84
2023-01-29T15:42:04.271Z,70.90
2023-01-29T15:44:30.819Z,71.08
2023-01-29T15:47:00.991Z,71.17
2023-01-29T15:49:36.460Z,71.33
2023-01-29T15:52:09.814Z,71.41
2023-01-29T15:54:36.403Z,71.04
2023-01-29T15:57:03.932Z,71.32
2023-01-29T15:59:44.898Z,71.38
2023-01-29T16:02:29.149Z,71.25
2023-01-29T16:04:56.131Z,71.44
2023-01-29T16:07:22.930Z,71.62
2023-01-29T16:09:52.754Z,71.29
2023-01-29T16:12:19.892Z,71.61
2023-01-29T16:14:47.592Z,71.17
2023-01-29T16:17:25.877Z,71.42
2023-01-29T16:20:00.607Z,71.80
2023-01-29T16:22:32.647Z,72.36
2023-01-29T16:25:03.556Z,72.51
2023-01-29T16:27:31.296Z,72.65
2023-01-29T16:29:58.199Z,72.75
2023-01-29T16:32:24.811Z,72.51
2023-01-29T16:34:57.948Z,72.74
2023-01-29T16:37:32.156Z,73.29
2023-01-29T16:39:59.522Z,73.84
2023-01-29T16:42:28.908Z,73.38
2023-01-29T16:45:04.830Z,73.85
2023-01-29T16:47:41.637Z,73.77
2023-01-29T16:50:35.999Z,74.03
2023-01-29T16:53:13.102Z,74.15
2023-01-29T16:55:42.652Z,74.42
2023-01-29T16:58:25.097Z,74.33
2023-01-29T17:01:01.283Z,74.32
2023-01-29T17:03:30.671Z,75.17
2023-01-29T17:05:57.891Z,74.77
2023-01-29T17:08:32.789Z,74.95
2023-01-29T17:10:59.932Z,74.74
2023-01-29T17:13:46.015Z,74.58
2023-01-29T17:16:33.380Z,74.71
2023-01-29T17:19:00.900Z,75.19
2023-01-29T17:21:29.311Z,75.49
2023-01-29T17:23:55.982Z,75.36
2023-01-29T17:26:24.929Z,75.08
2023-01-29T17:28:53.931Z,75.12
2023-01-29T17:31:20.594Z,74.98
2023-01-29T17:33:47.566Z,75.03
2023-01-29T17:36:15.988Z,75.41
2023-01-29T17:38:42.643Z,75.14
2023-01-29T17:41:18.673Z,75.17
2023-01-29T17:43:45.819Z,74.92
2023-01-29T17:46:15.128Z,74.87
2023-01-29T17:48:42.721Z,74.70
2023-01-29T17:51:13.568Z,74.65
2023-01-29T17:53:46.008Z,74.73
2023-01-29T17:56:16.989Z,74.80
2023-01-29T17:58:43.815Z,74.82
2023-01-29T18:01:10.568Z,74.76
2023-01-29T18:03:37.326Z,74.80
2023-01-29T18:06:07.475Z,74.60
2023-01-29T18:08:36.616Z,74.51
2023-01-29T18:11:03.354Z,74.66
2023-01-29T18:13:30.169Z,74.04
2023-01-29T18:15:56.941Z,74.15
2023-01-29T18:18:24.419Z,74.88
2023-01-29T18:20:51.111Z,74.46
2023-01-29T18:23:17.840Z,74.13
2023-01-29T18:25:45.221Z,74.03
2023-01-29T18:28:19.630Z,74.56
2023-01-29T18:30:47.495Z,74.64
2023-01-29T18:33:15.321Z,74.48
2023-01-29T18:35:44.476Z,74.27
2023-01-29T18:38:11.421Z,74.73
2023-01-29T18:40:37.977Z,74.87
2023-01-29T18:43:04.609Z,74.49
2023-01-29T18:45:31.449Z,74.64
2023-01-29T18:47:58.553Z,74.73
2023-01-29T18:50:26.469Z,74.31
2023-01-29T18:52:54.492Z,74.32
2023-01-29T18:55:22.165Z,74.46
2023-01-29T18:58:26.655Z,74.84
2023-01-29T19:00:40.312Z,74.58
2023-01-29T19:03:06.924Z,74.82
2023-01-29T19:05:34.044Z,74.37
2023-01-29T19:08:01.852Z,74.72
2023-01-29T19:10:28.542Z,74.45
2023-01-29T19:12:55.266Z,74.55
2023-01-29T19:15:22.994Z,74.57
2023-01-29T19:17:52.972Z,74.77
2023-01-29T19:20:19.958Z,75.00
2023-01-29T19:22:46.949Z,74.84
2023-01-29T19:25:13.998Z,75.05
2023-01-29T19:27:40.791Z,75.14
2023-01-29T19:30:08.654Z,75.29
2023-01-29T19:32:35.541Z,75.00
2023-01-29T19:35:02.377Z,74.73
2023-01-29T19:37:30.531Z,74.70
2023-01-29T19:39:57.165Z,75.15
2023-01-29T19:42:24.019Z,74.78
2023-01-29T19:44:52.296Z,75.36
2023-01-29T19:47:19.077Z,74.88
2023-01-29T19:49:45.891Z,74.84
2023-01-29T19:52:49.775Z,74.96
2023-01-29T19:55:17.892Z,75.38
2023-01-29T19:57:44.926Z,75.32
2023-01-29T20:00:12.216Z,75.18
2023-01-29T20:02:39.036Z,75.36
2023-01-29T20:05:07.941Z,74.98
2023-01-29T20:07:36.089Z,75.28
2023-01-29T20:10:03.608Z,74.84
2023-01-29T20:12:30.234Z,75.16
2023-01-29T20:14:56.918Z,75.28
2023-01-29T20:17:23.747Z,75.13
2023-01-29T20:19:50.358Z,75.26
2023-01-29T20:22:17.291Z,75.73
2023-01-29T20:24:43.934Z,75.33
2023-01-29T20:27:11.297Z,75.28
2023-01-29T20:29:39.538Z,75.59
2023-01-29T20:32:08.733Z,75.55
2023-01-29T20:34:35.466Z,75.61
2023-01-29T20:37:02.238Z,75.54
2023-01-29T20:39:28.804Z,75.54
2023-01-29T20:41:57.292Z,75.67
2023-01-29T20:44:25.009Z,75.96
2023-01-29T20:46:52.642Z,75.83
2023-01-29T20:49:19.621Z,75.30
2023-01-29T20:51:46.438Z,75.50
2023-01-29T20:54:13.246Z,75.99
2023-01-29T20:56:43.618Z,75.84
2023-01-29T20:59:12.609Z,75.86
2023-01-29T21:01:39.141Z,76.06
2023-01-29T21:04:05.900Z,75.31
2023-01-29T21:06:32.555Z,75.30
2023-01-29T21:08:59.111Z,75.53
2023-01-29T21:11:25.961Z,75.35
2023-01-29T21:13:57.542Z,74.55
2023-01-29T21:16:26.303Z,76.45
2023-01-29T21:18:59.232Z,75.60
2023-01-29T21:21:26.901Z,74.79
2023-01-29T21:23:54.351Z,74.16
2023-01-29T21:26:21.236Z,74.66
2023-01-29T21:28:47.924Z,74.38
2023-01-29T21:31:16.337Z,73.96
2023-01-29T21:33:43.543Z,75.75
2023-01-29T21:36:10.524Z,74.46
2023-01-29T21:38:37.288Z,75.55
2023-01-29T21:41:05.708Z,74.80
2023-01-29T21:43:32.223Z,77.02
2023-01-29T21:46:02.564Z,75.63
2023-01-29T21:48:29.264Z,75.73
2023-01-29T21:50:55.844Z,75.76
2023-01-29T21:53:22.836Z,75.94
2023-01-29T21:55:49.448Z,75.13
2023-01-29T21:58:16.134Z,76.08
2023-01-29T22:00:42.816Z,76.47
2023-01-29T22:03:09.436Z,76.61
2023-01-29T22:05:36.001Z,81.49
2023-01-29T22:08:04.803Z,78.53
2023-01-29T22:10:33.903Z,76.84
2023-01-29T22:13:01.962Z,77.09
2023-01-29T22:15:28.804Z,77.88
2023-01-29T22:17:55.414Z,76.56
2023-01-29T22:20:29.820Z,77.10
2023-01-29T22:23:00.670Z,76.54
2023-01-29T22:25:27.747Z,76.62
2023-01-29T22:27:54.447Z,77.07
2023-01-29T22:30:23.366Z,77.53
2023-01-29T22:32:50.527Z,78.00
2023-01-29T22:35:17.748Z,77.54
2023-01-29T22:37:45.156Z,78.27
2023-01-29T22:40:12.908Z,79.14
2023-01-29T22:42:39.410Z,77.78
2023-01-29T22:45:06.481Z,78.23
2023-01-29T22:47:33.777Z,78.54
2023-01-29T22:50:00.310Z,79.22
2023-01-29T22:52:27.985Z,78.40
2023-01-29T22:54:54.578Z,79.15
2023-01-29T22:57:21.106Z,82.53
2023-01-29T22:59:47.684Z,79.88
2023-01-29T23:02:14.437Z,79.02
2023-01-29T23:04:41.093Z,80.41
2023-01-29T23:07:07.719Z,84.73
2023-01-29T23:09:34.249Z,79.31
2023-01-29T23:12:01.539Z,79.75
2023-01-29T23:14:28.067Z,80.40
2023-01-29T23:16:54.799Z,79.43
2023-01-29T23:19:21.498Z,79.64
2023-01-29T23:21:48.137Z,80.69
2023-01-29T23:24:14.656Z,79.37
2023-01-29T23:26:59.951Z,79.90
2023-01-29T23:29:26.975Z,80.32
2023-01-29T23:31:53.586Z,80.45
2023-01-29T23:34:20.677Z,81.23
2023-01-29T23:36:47.551Z,82.03
2023-01-29T23:39:14.053Z,81.80
2023-01-29T23:41:40.575Z,82.09
2023-01-29T23:44:07.249Z,81.07
2023-01-29T23:46:34.083Z,81.82
2023-01-29T23:49:00.749Z,81.81
2023-01-29T23:51:27.539Z,81.67
2023-01-29T23:53:54.462Z,81.73
2023-01-29T23:56:21.436Z,83.77
2023-01-29T23:58:48.116Z,81.92
